sensor_id;sensor_type;location;lat;lon;timestamp;P1;durP1;ratioP1;P2;durP2;ratioP2
51082;SDS011;37131;42.694;23.350;2023-03-01T00:01:00;3.13;;;1.45;;
51082;SDS011;37131;42.694;23.350;2023-03-01T00:03:29;3.28;;;1.60;;
51082;SDS011;37131;42.694;23.350;2023-03-01T00:05:55;4.32;;;1.65;;
51082;SDS011;37131;42.694;23.350;2023-03-01T00:08:21;3.80;;;1.58;;
51082;SDS011;37131;42.694;23.350;2023-03-01T00:10:47;3.53;;;1.80;;
51082;SDS011;37131;42.694;23.350;2023-03-01T00:13:12;3.90;;;1.75;;
51082;SDS011;37131;42.694;23.350;2023-03-01T00:15:38;3.45;;;1.25;;
51082;SDS011;37131;42.694;23.350;2023-03-01T00:18:05;3.40;;;1.10;;
51082;SDS011;37131;42.694;23.350;2023-03-01T00:20:30;2.53;;;1.15;;
51082;SDS011;37131;42.694;23.350;2023-03-01T00:22:55;2.88;;;0.93;;
51082;SDS011;37131;42.694;23.350;2023-03-01T00:25:21;5.78;;;1.30;;
51082;SDS011;37131;42.694;23.350;2023-03-01T00:27:46;1.63;;;0.60;;
51082;SDS011;37131;42.694;23.350;2023-03-01T00:30:14;2.10;;;1.10;;
51082;SDS011;37131;42.694;23.350;2023-03-01T00:32:39;2.42;;;1.17;;
51082;SDS011;37131;42.694;23.350;2023-03-01T00:35:05;2.58;;;0.93;;
51082;SDS011;37131;42.694;23.350;2023-03-01T00:37:30;2.80;;;0.80;;
51082;SDS011;37131;42.694;23.350;2023-03-01T00:39:56;4.00;;;1.00;;
51082;SDS011;37131;42.694;23.350;2023-03-01T00:42:21;2.33;;;0.98;;
51082;SDS011;37131;42.694;23.350;2023-03-01T00:44:47;3.63;;;0.88;;
51082;SDS011;37131;42.694;23.350;2023-03-01T00:47:12;2.55;;;0.98;;
51082;SDS011;37131;42.694;23.350;2023-03-01T00:49:38;2.13;;;1.20;;
51082;SDS011;37131;42.694;23.350;2023-03-01T00:52:04;1.23;;;0.63;;
51082;SDS011;37131;42.694;23.350;2023-03-01T00:54:30;2.65;;;0.98;;
51082;SDS011;37131;42.694;23.350;2023-03-01T00:56:55;2.78;;;1.10;;
51082;SDS011;37131;42.694;23.350;2023-03-01T00:59:21;2.90;;;0.90;;
51082;SDS011;37131;42.694;23.350;2023-03-01T01:01:46;3.38;;;1.15;;
51082;SDS011;37131;42.694;23.350;2023-03-01T01:04:12;1.88;;;0.63;;
51082;SDS011;37131;42.694;23.350;2023-03-01T01:06:47;2.05;;;0.88;;
51082;SDS011;37131;42.694;23.350;2023-03-01T01:09:13;2.00;;;0.85;;
51082;SDS011;37131;42.694;23.350;2023-03-01T01:11:44;2.50;;;1.10;;
51082;SDS011;37131;42.694;23.350;2023-03-01T01:14:11;3.17;;;1.13;;
51082;SDS011;37131;42.694;23.350;2023-03-01T01:16:37;1.55;;;0.60;;
51082;SDS011;37131;42.694;23.350;2023-03-01T01:19:02;1.40;;;0.70;;
51082;SDS011;37131;42.694;23.350;2023-03-01T01:21:28;1.73;;;0.90;;
51082;SDS011;37131;42.694;23.350;2023-03-01T01:23:54;3.10;;;0.90;;
51082;SDS011;37131;42.694;23.350;2023-03-01T01:26:21;2.42;;;1.15;;
51082;SDS011;37131;42.694;23.350;2023-03-01T01:28:51;3.53;;;1.25;;
51082;SDS011;37131;42.694;23.350;2023-03-01T01:31:16;2.15;;;0.75;;
51082;SDS011;37131;42.694;23.350;2023-03-01T01:33:42;3.75;;;0.93;;
51082;SDS011;37131;42.694;23.350;2023-03-01T01:36:08;1.98;;;0.60;;
51082;SDS011;37131;42.694;23.350;2023-03-01T01:38:34;2.60;;;0.95;;
51082;SDS011;37131;42.694;23.350;2023-03-01T01:41:02;3.08;;;1.20;;
51082;SDS011;37131;42.694;23.350;2023-03-01T01:43:29;1.83;;;0.95;;
51082;SDS011;37131;42.694;23.350;2023-03-01T01:46:25;1.20;;;0.60;;
51082;SDS011;37131;42.694;23.350;2023-03-01T01:48:56;1.95;;;0.77;;
51082;SDS011;37131;42.694;23.350;2023-03-01T01:51:44;2.58;;;0.95;;
51082;SDS011;37131;42.694;23.350;2023-03-01T01:54:20;1.30;;;0.50;;
51082;SDS011;37131;42.694;23.350;2023-03-01T01:56:53;1.65;;;0.60;;
51082;SDS011;37131;42.694;23.350;2023-03-01T01:59:23;0.63;;;0.40;;
51082;SDS011;37131;42.694;23.350;2023-03-01T02:01:53;1.35;;;0.60;;
51082;SDS011;37131;42.694;23.350;2023-03-01T02:04:19;1.50;;;0.65;;
51082;SDS011;37131;42.694;23.350;2023-03-01T02:06:49;2.40;;;0.50;;
51082;SDS011;37131;42.694;23.350;2023-03-01T02:09:22;1.77;;;0.70;;
51082;SDS011;37131;42.694;23.350;2023-03-01T02:11:48;3.22;;;0.90;;
51082;SDS011;37131;42.694;23.350;2023-03-01T02:14:15;1.23;;;0.60;;
51082;SDS011;37131;42.694;23.350;2023-03-01T02:16:41;1.67;;;0.80;;
51082;SDS011;37131;42.694;23.350;2023-03-01T02:19:07;1.55;;;0.80;;
51082;SDS011;37131;42.694;23.350;2023-03-01T02:21:57;2.03;;;0.57;;
51082;SDS011;37131;42.694;23.350;2023-03-01T02:27:20;1.08;;;0.65;;
51082;SDS011;37131;42.694;23.350;2023-03-01T02:29:51;0.95;;;0.60;;
51082;SDS011;37131;42.694;23.350;2023-03-01T02:32:17;1.77;;;0.75;;
51082;SDS011;37131;42.694;23.350;2023-03-01T02:34:51;1.88;;;0.85;;
51082;SDS011;37131;42.694;23.350;2023-03-01T02:37:19;1.63;;;0.73;;
51082;SDS011;37131;42.694;23.350;2023-03-01T02:39:49;2.40;;;0.90;;
51082;SDS011;37131;42.694;23.350;2023-03-01T02:42:23;1.33;;;0.85;;
51082;SDS011;37131;42.694;23.350;2023-03-01T02:44:53;1.70;;;0.75;;
51082;SDS011;37131;42.694;23.350;2023-03-01T02:47:18;2.03;;;0.90;;
51082;SDS011;37131;42.694;23.350;2023-03-01T02:49:44;1.40;;;0.73;;
51082;SDS011;37131;42.694;23.350;2023-03-01T02:54:52;2.47;;;0.55;;
51082;SDS011;37131;42.694;23.350;2023-03-01T02:57:24;1.58;;;0.80;;
51082;SDS011;37131;42.694;23.350;2023-03-01T02:59:52;1.50;;;0.57;;
51082;SDS011;37131;42.694;23.350;2023-03-01T03:02:27;1.40;;;0.85;;
51082;SDS011;37131;42.694;23.350;2023-03-01T03:07:34;1.55;;;0.70;;
51082;SDS011;37131;42.694;23.350;2023-03-01T03:10:01;1.85;;;0.80;;
51082;SDS011;37131;42.694;23.350;2023-03-01T03:12:28;1.27;;;0.43;;
51082;SDS011;37131;42.694;23.350;2023-03-01T03:14:53;1.40;;;0.70;;
51082;SDS011;37131;42.694;23.350;2023-03-01T03:17:19;1.67;;;0.88;;
51082;SDS011;37131;42.694;23.350;2023-03-01T03:19:44;1.50;;;0.82;;
51082;SDS011;37131;42.694;23.350;2023-03-01T03:22:10;1.20;;;0.85;;
51082;SDS011;37131;42.694;23.350;2023-03-01T03:24:36;0.90;;;0.75;;
51082;SDS011;37131;42.694;23.350;2023-03-01T03:27:06;1.23;;;0.68;;
51082;SDS011;37131;42.694;23.350;2023-03-01T03:29:31;2.88;;;1.10;;
51082;SDS011;37131;42.694;23.350;2023-03-01T03:31:57;2.65;;;1.00;;
51082;SDS011;37131;42.694;23.350;2023-03-01T03:34:22;1.35;;;0.70;;
51082;SDS011;37131;42.694;23.350;2023-03-01T03:36:52;2.10;;;0.60;;
51082;SDS011;37131;42.694;23.350;2023-03-01T03:39:21;1.92;;;1.05;;
51082;SDS011;37131;42.694;23.350;2023-03-01T03:41:59;2.92;;;0.90;;
51082;SDS011;37131;42.694;23.350;2023-03-01T03:44:25;1.88;;;1.00;;
51082;SDS011;37131;42.694;23.350;2023-03-01T03:46:50;1.70;;;0.90;;
51082;SDS011;37131;42.694;23.350;2023-03-01T03:49:16;2.08;;;1.00;;
51082;SDS011;37131;42.694;23.350;2023-03-01T03:51:41;2.17;;;1.20;;
51082;SDS011;37131;42.694;23.350;2023-03-01T03:54:06;2.22;;;1.17;;
51082;SDS011;37131;42.694;23.350;2023-03-01T03:56:32;3.85;;;1.17;;
51082;SDS011;37131;42.694;23.350;2023-03-01T03:58:57;3.22;;;1.42;;
51082;SDS011;37131;42.694;23.350;2023-03-01T04:01:22;3.42;;;1.65;;
51082;SDS011;37131;42.694;23.350;2023-03-01T04:03:48;3.92;;;1.70;;
51082;SDS011;37131;42.694;23.350;2023-03-01T04:06:13;3.55;;;1.58;;
51082;SDS011;37131;42.694;23.350;2023-03-01T04:08:39;3.70;;;1.50;;
51082;SDS011;37131;42.694;23.350;2023-03-01T04:11:06;3.00;;;1.35;;
51082;SDS011;37131;42.694;23.350;2023-03-01T04:13:50;1.73;;;1.10;;
51082;SDS011;37131;42.694;23.350;2023-03-01T04:16:17;1.75;;;0.98;;
51082;SDS011;37131;42.694;23.350;2023-03-01T04:18:44;2.38;;;1.20;;
51082;SDS011;37131;42.694;23.350;2023-03-01T04:21:09;2.20;;;0.98;;
51082;SDS011;37131;42.694;23.350;2023-03-01T04:23:36;2.28;;;1.10;;
51082;SDS011;37131;42.694;23.350;2023-03-01T04:26:02;2.95;;;1.20;;
51082;SDS011;37131;42.694;23.350;2023-03-01T04:30:56;1.40;;;0.70;;
51082;SDS011;37131;42.694;23.350;2023-03-01T04:33:23;1.40;;;0.77;;
51082;SDS011;37131;42.694;23.350;2023-03-01T04:35:49;1.40;;;0.70;;
51082;SDS011;37131;42.694;23.350;2023-03-01T04:38:16;1.45;;;0.82;;
51082;SDS011;37131;42.694;23.350;2023-03-01T04:40:42;3.17;;;0.85;;
51082;SDS011;37131;42.694;23.350;2023-03-01T04:43:08;1.75;;;0.65;;
51082;SDS011;37131;42.694;23.350;2023-03-01T04:45:35;1.83;;;0.73;;
51082;SDS011;37131;42.694;23.350;2023-03-01T04:48:01;2.15;;;0.90;;
51082;SDS011;37131;42.694;23.350;2023-03-01T04:50:27;1.98;;;0.90;;
51082;SDS011;37131;42.694;23.350;2023-03-01T04:52:52;1.75;;;1.00;;
51082;SDS011;37131;42.694;23.350;2023-03-01T04:55:18;2.03;;;1.00;;
51082;SDS011;37131;42.694;23.350;2023-03-01T04:57:43;1.90;;;0.90;;
51082;SDS011;37131;42.694;23.350;2023-03-01T05:00:12;2.75;;;1.35;;
51082;SDS011;37131;42.694;23.350;2023-03-01T05:02:55;3.13;;;1.30;;
51082;SDS011;37131;42.694;23.350;2023-03-01T05:05:26;1.83;;;0.95;;
51082;SDS011;37131;42.694;23.350;2023-03-01T05:07:57;3.20;;;1.23;;
51082;SDS011;37131;42.694;23.350;2023-03-01T05:10:24;2.58;;;1.23;;
51082;SDS011;37131;42.694;23.350;2023-03-01T05:12:51;2.00;;;1.30;;
51082;SDS011;37131;42.694;23.350;2023-03-01T05:15:19;2.30;;;0.90;;
51082;SDS011;37131;42.694;23.350;2023-03-01T05:17:46;4.97;;;1.23;;
51082;SDS011;37131;42.694;23.350;2023-03-01T05:20:13;4.85;;;1.73;;
51082;SDS011;37131;42.694;23.350;2023-03-01T05:22:38;4.05;;;1.67;;
51082;SDS011;37131;42.694;23.350;2023-03-01T05:25:04;2.88;;;1.17;;
51082;SDS011;37131;42.694;23.350;2023-03-01T05:27:29;2.60;;;1.40;;
51082;SDS011;37131;42.694;23.350;2023-03-01T05:29:55;3.50;;;1.60;;
51082;SDS011;37131;42.694;23.350;2023-03-01T05:32:21;3.28;;;1.30;;
51082;SDS011;37131;42.694;23.350;2023-03-01T05:34:46;2.97;;;1.45;;
51082;SDS011;37131;42.694;23.350;2023-03-01T05:37:12;3.55;;;1.85;;
51082;SDS011;37131;42.694;23.350;2023-03-01T05:39:38;4.65;;;1.95;;
51082;SDS011;37131;42.694;23.350;2023-03-01T05:42:04;3.88;;;1.65;;
51082;SDS011;37131;42.694;23.350;2023-03-01T05:44:30;4.30;;;1.67;;
51082;SDS011;37131;42.694;23.350;2023-03-01T05:46:55;5.28;;;1.60;;
51082;SDS011;37131;42.694;23.350;2023-03-01T05:49:21;2.40;;;1.25;;
51082;SDS011;37131;42.694;23.350;2023-03-01T05:51:50;3.17;;;1.40;;
51082;SDS011;37131;42.694;23.350;2023-03-01T05:54:17;3.17;;;1.25;;
51082;SDS011;37131;42.694;23.350;2023-03-01T05:56:44;3.63;;;1.60;;
51082;SDS011;37131;42.694;23.350;2023-03-01T05:59:10;2.40;;;1.08;;
51082;SDS011;37131;42.694;23.350;2023-03-01T06:01:36;3.92;;;1.50;;
51082;SDS011;37131;42.694;23.350;2023-03-01T06:04:02;2.72;;;1.17;;
51082;SDS011;37131;42.694;23.350;2023-03-01T06:06:28;5.43;;;1.20;;
51082;SDS011;37131;42.694;23.350;2023-03-01T06:08:54;3.85;;;1.85;;
51082;SDS011;37131;42.694;23.350;2023-03-01T06:11:20;4.43;;;1.20;;
51082;SDS011;37131;42.694;23.350;2023-03-01T06:13:46;4.22;;;1.30;;
51082;SDS011;37131;42.694;23.350;2023-03-01T06:16:12;3.55;;;1.45;;
51082;SDS011;37131;42.694;23.350;2023-03-01T06:18:38;1.88;;;1.02;;
51082;SDS011;37131;42.694;23.350;2023-03-01T06:21:05;1.92;;;1.08;;
51082;SDS011;37131;42.694;23.350;2023-03-01T06:23:31;2.03;;;1.08;;
51082;SDS011;37131;42.694;23.350;2023-03-01T06:25:57;4.63;;;1.65;;
51082;SDS011;37131;42.694;23.350;2023-03-01T06:28:22;4.38;;;1.25;;
51082;SDS011;37131;42.694;23.350;2023-03-01T06:30:49;2.60;;;0.98;;
51082;SDS011;37131;42.694;23.350;2023-03-01T06:33:14;3.60;;;1.25;;
51082;SDS011;37131;42.694;23.350;2023-03-01T06:35:40;3.70;;;1.48;;
51082;SDS011;37131;42.694;23.350;2023-03-01T06:38:05;5.10;;;1.70;;
51082;SDS011;37131;42.694;23.350;2023-03-01T06:40:31;4.70;;;2.13;;
51082;SDS011;37131;42.694;23.350;2023-03-01T06:42:57;2.28;;;1.00;;
51082;SDS011;37131;42.694;23.350;2023-03-01T06:45:23;2.08;;;0.80;;
51082;SDS011;37131;42.694;23.350;2023-03-01T06:47:49;3.13;;;1.13;;
51082;SDS011;37131;42.694;23.350;2023-03-01T06:50:15;3.95;;;1.30;;
51082;SDS011;37131;42.694;23.350;2023-03-01T06:52:42;4.30;;;1.25;;
51082;SDS011;37131;42.694;23.350;2023-03-01T06:55:09;5.22;;;1.33;;
51082;SDS011;37131;42.694;23.350;2023-03-01T06:57:36;2.20;;;1.15;;
51082;SDS011;37131;42.694;23.350;2023-03-01T07:00:02;5.82;;;1.25;;
51082;SDS011;37131;42.694;23.350;2023-03-01T07:02:29;2.33;;;0.93;;
51082;SDS011;37131;42.694;23.350;2023-03-01T07:04:54;2.45;;;1.20;;
51082;SDS011;37131;42.694;23.350;2023-03-01T07:07:19;4.13;;;1.25;;
51082;SDS011;37131;42.694;23.350;2023-03-01T07:09:45;2.83;;;1.38;;
51082;SDS011;37131;42.694;23.350;2023-03-01T07:12:11;2.42;;;1.15;;
51082;SDS011;37131;42.694;23.350;2023-03-01T07:14:36;3.55;;;1.30;;
51082;SDS011;37131;42.694;23.350;2023-03-01T07:17:02;4.53;;;1.30;;
51082;SDS011;37131;42.694;23.350;2023-03-01T07:19:27;3.30;;;1.40;;
51082;SDS011;37131;42.694;23.350;2023-03-01T07:21:53;7.95;;;1.30;;
51082;SDS011;37131;42.694;23.350;2023-03-01T07:24:18;2.95;;;1.05;;
51082;SDS011;37131;42.694;23.350;2023-03-01T07:26:47;1.55;;;0.82;;
51082;SDS011;37131;42.694;23.350;2023-03-01T07:29:14;2.22;;;0.75;;
51082;SDS011;37131;42.694;23.350;2023-03-01T07:31:39;6.70;;;1.40;;
51082;SDS011;37131;42.694;23.350;2023-03-01T07:34:04;2.22;;;0.88;;
51082;SDS011;37131;42.694;23.350;2023-03-01T07:36:30;3.17;;;1.55;;
51082;SDS011;37131;42.694;23.350;2023-03-01T07:38:55;2.50;;;1.27;;
51082;SDS011;37131;42.694;23.350;2023-03-01T07:41:21;4.75;;;1.60;;
51082;SDS011;37131;42.694;23.350;2023-03-01T07:43:47;6.97;;;1.98;;
51082;SDS011;37131;42.694;23.350;2023-03-01T07:46:12;3.25;;;1.33;;
51082;SDS011;37131;42.694;23.350;2023-03-01T07:48:37;2.20;;;1.10;;
51082;SDS011;37131;42.694;23.350;2023-03-01T07:51:04;3.05;;;1.40;;
51082;SDS011;37131;42.694;23.350;2023-03-01T07:53:30;3.17;;;1.58;;
51082;SDS011;37131;42.694;23.350;2023-03-01T07:56:11;4.00;;;1.10;;
51082;SDS011;37131;42.694;23.350;2023-03-01T07:58:39;3.42;;;1.45;;
51082;SDS011;37131;42.694;23.350;2023-03-01T08:01:07;3.78;;;1.30;;
51082;SDS011;37131;42.694;23.350;2023-03-01T08:03:36;3.22;;;1.60;;
51082;SDS011;37131;42.694;23.350;2023-03-01T08:06:03;3.38;;;1.38;;
51082;SDS011;37131;42.694;23.350;2023-03-01T08:08:30;2.30;;;1.33;;
51082;SDS011;37131;42.694;23.350;2023-03-01T08:10:57;3.13;;;1.73;;
51082;SDS011;37131;42.694;23.350;2023-03-01T08:13:23;2.72;;;1.00;;
51082;SDS011;37131;42.694;23.350;2023-03-01T08:15:49;3.47;;;1.15;;
51082;SDS011;37131;42.694;23.350;2023-03-01T08:18:18;2.50;;;1.00;;
51082;SDS011;37131;42.694;23.350;2023-03-01T08:20:44;1.20;;;0.60;;
51082;SDS011;37131;42.694;23.350;2023-03-01T08:23:09;3.65;;;0.80;;
51082;SDS011;37131;42.694;23.350;2023-03-01T08:25:35;2.97;;;1.05;;
51082;SDS011;37131;42.694;23.350;2023-03-01T08:28:00;1.80;;;0.52;;
51082;SDS011;37131;42.694;23.350;2023-03-01T08:30:26;0.93;;;0.60;;
51082;SDS011;37131;42.694;23.350;2023-03-01T08:32:51;5.07;;;0.80;;
51082;SDS011;37131;42.694;23.350;2023-03-01T08:35:17;2.65;;;0.95;;
51082;SDS011;37131;42.694;23.350;2023-03-01T08:37:43;2.83;;;1.00;;
51082;SDS011;37131;42.694;23.350;2023-03-01T08:40:08;4.90;;;1.17;;
51082;SDS011;37131;42.694;23.350;2023-03-01T08:42:35;1.70;;;0.93;;
51082;SDS011;37131;42.694;23.350;2023-03-01T08:45:01;1.77;;;1.20;;
51082;SDS011;37131;42.694;23.350;2023-03-01T08:47:27;1.67;;;1.00;;
51082;SDS011;37131;42.694;23.350;2023-03-01T08:49:53;4.05;;;1.23;;
51082;SDS011;37131;42.694;23.350;2023-03-01T08:52:19;7.20;;;1.30;;
51082;SDS011;37131;42.694;23.350;2023-03-01T08:54:46;3.47;;;0.90;;
51082;SDS011;37131;42.694;23.350;2023-03-01T08:57:12;1.38;;;0.85;;
51082;SDS011;37131;42.694;23.350;2023-03-01T08:59:38;3.65;;;1.08;;
51082;SDS011;37131;42.694;23.350;2023-03-01T09:02:04;2.72;;;1.00;;
51082;SDS011;37131;42.694;23.350;2023-03-01T09:04:31;2.10;;;1.10;;
51082;SDS011;37131;42.694;23.350;2023-03-01T09:06:56;1.67;;;0.70;;
51082;SDS011;37131;42.694;23.350;2023-03-01T09:09:22;1.45;;;0.70;;
51082;SDS011;37131;42.694;23.350;2023-03-01T09:11:47;1.00;;;0.60;;
51082;SDS011;37131;42.694;23.350;2023-03-01T09:14:15;1.38;;;0.70;;
51082;SDS011;37131;42.694;23.350;2023-03-01T09:16:40;1.20;;;0.70;;
51082;SDS011;37131;42.694;23.350;2023-03-01T09:19:06;4.30;;;0.70;;
51082;SDS011;37131;42.694;23.350;2023-03-01T09:21:31;1.80;;;0.63;;
51082;SDS011;37131;42.694;23.350;2023-03-01T09:23:57;1.30;;;0.57;;
51082;SDS011;37131;42.694;23.350;2023-03-01T09:26:23;2.05;;;0.98;;
51082;SDS011;37131;42.694;23.350;2023-03-01T09:28:50;2.25;;;1.05;;
51082;SDS011;37131;42.694;23.350;2023-03-01T09:31:18;4.10;;;0.70;;
51082;SDS011;37131;42.694;23.350;2023-03-01T09:33:46;4.38;;;1.45;;
51082;SDS011;37131;42.694;23.350;2023-03-01T09:36:14;1.52;;;0.70;;
51082;SDS011;37131;42.694;23.350;2023-03-01T09:38:42;3.00;;;0.85;;
51082;SDS011;37131;42.694;23.350;2023-03-01T09:46:19;2.13;;;0.70;;
51082;SDS011;37131;42.694;23.350;2023-03-01T09:51:38;2.03;;;1.00;;
51082;SDS011;37131;42.694;23.350;2023-03-01T09:54:03;2.22;;;0.80;;
51082;SDS011;37131;42.694;23.350;2023-03-01T09:56:34;2.53;;;0.80;;
51082;SDS011;37131;42.694;23.350;2023-03-01T10:09:40;1.40;;;0.68;;
51082;SDS011;37131;42.694;23.350;2023-03-01T10:12:09;1.75;;;1.05;;
51082;SDS011;37131;42.694;23.350;2023-03-01T10:15:01;1.25;;;0.60;;
51082;SDS011;37131;42.694;23.350;2023-03-01T10:23:09;1.10;;;0.55;;
51082;SDS011;37131;42.694;23.350;2023-03-01T10:30:43;2.92;;;0.77;;
51082;SDS011;37131;42.694;23.350;2023-03-01T10:35:48;1.25;;;0.57;;
51082;SDS011;37131;42.694;23.350;2023-03-01T10:38:14;1.23;;;0.60;;
51082;SDS011;37131;42.694;23.350;2023-03-01T10:43:22;1.42;;;0.60;;
51082;SDS011;37131;42.694;23.350;2023-03-01T10:45:52;1.75;;;0.90;;
51082;SDS011;37131;42.694;23.350;2023-03-01T10:48:18;0.98;;;0.55;;
51082;SDS011;37131;42.694;23.350;2023-03-01T10:50:49;1.02;;;0.50;;
51082;SDS011;37131;42.694;23.350;2023-03-01T10:55:45;2.65;;;0.40;;
51082;SDS011;37131;42.694;23.350;2023-03-01T10:58:17;0.75;;;0.38;;
51082;SDS011;37131;42.694;23.350;2023-03-01T11:05:57;1.58;;;0.57;;
51082;SDS011;37131;42.694;23.350;2023-03-01T11:08:32;2.03;;;0.68;;
51082;SDS011;37131;42.694;23.350;2023-03-01T11:13:34;2.05;;;0.60;;
51082;SDS011;37131;42.694;23.350;2023-03-01T11:16:05;3.28;;;0.57;;
51082;SDS011;37131;42.694;23.350;2023-03-01T11:18:32;1.55;;;0.90;;
51082;SDS011;37131;42.694;23.350;2023-03-01T11:20:58;2.47;;;0.60;;
51082;SDS011;37131;42.694;23.350;2023-03-01T11:23:27;3.22;;;0.75;;
51082;SDS011;37131;42.694;23.350;2023-03-01T11:25:55;1.05;;;0.40;;
51082;SDS011;37131;42.694;23.350;2023-03-01T11:28:24;2.85;;;1.10;;
51082;SDS011;37131;42.694;23.350;2023-03-01T11:30:57;3.83;;;0.90;;
51082;SDS011;37131;42.694;23.350;2023-03-01T11:38:57;0.47;;;0.20;;
51082;SDS011;37131;42.694;23.350;2023-03-01T11:41:30;0.65;;;0.40;;
51082;SDS011;37131;42.694;23.350;2023-03-01T11:43:59;3.13;;;0.60;;
51082;SDS011;37131;42.694;23.350;2023-03-01T11:57:19;3.33;;;0.63;;
51082;SDS011;37131;42.694;23.350;2023-03-01T12:00:00;2.30;;;0.90;;
51082;SDS011;37131;42.694;23.350;2023-03-01T12:10:57;2.50;;;0.57;;
51082;SDS011;37131;42.694;23.350;2023-03-01T12:16:20;2.45;;;1.05;;
51082;SDS011;37131;42.694;23.350;2023-03-01T12:19:10;3.42;;;1.42;;
51082;SDS011;37131;42.694;23.350;2023-03-01T12:21:57;2.67;;;1.20;;
51082;SDS011;37131;42.694;23.350;2023-03-01T12:30:19;3.15;;;1.10;;
51082;SDS011;37131;42.694;23.350;2023-03-01T12:33:08;2.20;;;0.80;;
51082;SDS011;37131;42.694;23.350;2023-03-01T12:38:37;3.40;;;1.20;;
51082;SDS011;37131;42.694;23.350;2023-03-01T12:43:39;4.65;;;1.20;;
51082;SDS011;37131;42.694;23.350;2023-03-01T12:46:28;1.48;;;0.70;;
51082;SDS011;37131;42.694;23.350;2023-03-01T12:49:26;3.15;;;1.35;;
51082;SDS011;37131;42.694;23.350;2023-03-01T12:51:59;1.75;;;1.20;;
51082;SDS011;37131;42.694;23.350;2023-03-01T12:54:33;3.22;;;1.27;;
51082;SDS011;37131;42.694;23.350;2023-03-01T12:57:08;2.15;;;1.10;;
51082;SDS011;37131;42.694;23.350;2023-03-01T13:02:52;2.45;;;0.90;;
51082;SDS011;37131;42.694;23.350;2023-03-01T13:08:19;4.05;;;1.80;;
51082;SDS011;37131;42.694;23.350;2023-03-01T13:10:54;4.40;;;2.38;;
51082;SDS011;37131;42.694;23.350;2023-03-01T13:13:25;1.52;;;0.88;;
51082;SDS011;37131;42.694;23.350;2023-03-01T13:15:52;2.45;;;0.88;;
51082;SDS011;37131;42.694;23.350;2023-03-01T13:30:59;3.42;;;1.10;;
51082;SDS011;37131;42.694;23.350;2023-03-01T13:35:54;2.55;;;1.10;;
51082;SDS011;37131;42.694;23.350;2023-03-01T13:38:36;2.78;;;1.20;;
51082;SDS011;37131;42.694;23.350;2023-03-01T13:42:25;4.05;;;1.20;;
51082;SDS011;37131;42.694;23.350;2023-03-01T13:46:45;3.58;;;1.13;;
51082;SDS011;37131;42.694;23.350;2023-03-01T13:49:33;3.70;;;1.80;;
51082;SDS011;37131;42.694;23.350;2023-03-01T13:52:06;1.38;;;0.70;;
51082;SDS011;37131;42.694;23.350;2023-03-01T13:54:52;2.75;;;1.52;;
51082;SDS011;37131;42.694;23.350;2023-03-01T13:57:20;4.43;;;1.63;;
51082;SDS011;37131;42.694;23.350;2023-03-01T13:59:49;2.47;;;0.95;;
51082;SDS011;37131;42.694;23.350;2023-03-01T14:02:15;3.47;;;1.60;;
51082;SDS011;37131;42.694;23.350;2023-03-01T14:04:41;5.72;;;1.60;;
51082;SDS011;37131;42.694;23.350;2023-03-01T14:07:16;3.85;;;1.10;;
51082;SDS011;37131;42.694;23.350;2023-03-01T14:09:44;2.88;;;1.45;;
51082;SDS011;37131;42.694;23.350;2023-03-01T14:17:55;3.13;;;1.27;;
51082;SDS011;37131;42.694;23.350;2023-03-01T14:20:32;2.60;;;1.02;;
51082;SDS011;37131;42.694;23.350;2023-03-01T14:23:08;1.52;;;0.60;;
51082;SDS011;37131;42.694;23.350;2023-03-01T14:25:45;4.40;;;1.35;;
51082;SDS011;37131;42.694;23.350;2023-03-01T14:28:23;2.85;;;1.23;;
51082;SDS011;37131;42.694;23.350;2023-03-01T14:30:55;4.45;;;1.55;;
51082;SDS011;37131;42.694;23.350;2023-03-01T14:35:57;7.60;;;1.10;;
51082;SDS011;37131;42.694;23.350;2023-03-01T14:38:29;1.90;;;0.82;;
51082;SDS011;37131;42.694;23.350;2023-03-01T14:40:56;3.70;;;1.35;;
51082;SDS011;37131;42.694;23.350;2023-03-01T14:43:24;4.10;;;1.52;;
51082;SDS011;37131;42.694;23.350;2023-03-01T14:45:53;3.85;;;1.35;;
51082;SDS011;37131;42.694;23.350;2023-03-01T14:48:18;8.23;;;2.33;;
51082;SDS011;37131;42.694;23.350;2023-03-01T14:50:44;5.35;;;2.72;;
51082;SDS011;37131;42.694;23.350;2023-03-01T14:53:17;3.60;;;1.02;;
51082;SDS011;37131;42.694;23.350;2023-03-01T14:55:47;3.60;;;2.03;;
51082;SDS011;37131;42.694;23.350;2023-03-01T14:58:18;8.05;;;2.38;;
51082;SDS011;37131;42.694;23.350;2023-03-01T15:03:25;3.67;;;1.65;;
51082;SDS011;37131;42.694;23.350;2023-03-01T15:08:24;4.53;;;2.22;;
51082;SDS011;37131;42.694;23.350;2023-03-01T15:10:56;3.45;;;1.13;;
51082;SDS011;37131;42.694;23.350;2023-03-01T15:13:47;3.85;;;1.50;;
51082;SDS011;37131;42.694;23.350;2023-03-01T15:16:13;3.08;;;1.75;;
51082;SDS011;37131;42.694;23.350;2023-03-01T15:18:44;5.13;;;1.70;;
51082;SDS011;37131;42.694;23.350;2023-03-01T15:23:51;4.53;;;1.55;;
51082;SDS011;37131;42.694;23.350;2023-03-01T15:28:56;4.70;;;1.48;;
51082;SDS011;37131;42.694;23.350;2023-03-01T15:31:25;2.80;;;1.23;;
51082;SDS011;37131;42.694;23.350;2023-03-01T15:33:51;2.95;;;1.40;;
51082;SDS011;37131;42.694;23.350;2023-03-01T15:39:02;3.97;;;1.48;;
51082;SDS011;37131;42.694;23.350;2023-03-01T15:44:15;5.25;;;1.90;;
51082;SDS011;37131;42.694;23.350;2023-03-01T15:46:51;6.75;;;2.20;;
51082;SDS011;37131;42.694;23.350;2023-03-01T15:51:55;5.40;;;1.77;;
51082;SDS011;37131;42.694;23.350;2023-03-01T15:54:24;4.88;;;1.85;;
51082;SDS011;37131;42.694;23.350;2023-03-01T15:56:51;4.90;;;1.90;;
51082;SDS011;37131;42.694;23.350;2023-03-01T15:59:17;3.92;;;1.63;;
51082;SDS011;37131;42.694;23.350;2023-03-01T16:01:43;7.00;;;2.30;;
51082;SDS011;37131;42.694;23.350;2023-03-01T16:04:10;4.90;;;1.95;;
51082;SDS011;37131;42.694;23.350;2023-03-01T16:06:41;7.70;;;2.17;;
51082;SDS011;37131;42.694;23.350;2023-03-01T16:09:07;4.40;;;2.00;;
51082;SDS011;37131;42.694;23.350;2023-03-01T16:11:32;10.13;;;3.90;;
51082;SDS011;37131;42.694;23.350;2023-03-01T16:14:01;5.55;;;2.30;;
51082;SDS011;37131;42.694;23.350;2023-03-01T16:16:27;4.88;;;2.00;;
51082;SDS011;37131;42.694;23.350;2023-03-01T16:18:52;8.05;;;2.58;;
51082;SDS011;37131;42.694;23.350;2023-03-01T16:21:21;5.13;;;2.20;;
51082;SDS011;37131;42.694;23.350;2023-03-01T16:23:48;4.13;;;1.90;;
51082;SDS011;37131;42.694;23.350;2023-03-01T16:26:14;5.90;;;2.20;;
51082;SDS011;37131;42.694;23.350;2023-03-01T16:28:44;7.70;;;2.00;;
51082;SDS011;37131;42.694;23.350;2023-03-01T16:31:10;7.70;;;2.25;;
51082;SDS011;37131;42.694;23.350;2023-03-01T16:33:36;5.75;;;2.35;;
51082;SDS011;37131;42.694;23.350;2023-03-01T16:36:11;5.65;;;2.08;;
51082;SDS011;37131;42.694;23.350;2023-03-01T16:38:37;5.63;;;2.15;;
51082;SDS011;37131;42.694;23.350;2023-03-01T16:41:03;3.83;;;1.25;;
51082;SDS011;37131;42.694;23.350;2023-03-01T16:43:30;6.10;;;1.98;;
51082;SDS011;37131;42.694;23.350;2023-03-01T16:45:55;7.28;;;1.90;;
51082;SDS011;37131;42.694;23.350;2023-03-01T16:48:21;6.10;;;1.92;;
51082;SDS011;37131;42.694;23.350;2023-03-01T16:50:55;6.43;;;2.20;;
51082;SDS011;37131;42.694;23.350;2023-03-01T16:55:52;8.80;;;3.00;;
51082;SDS011;37131;42.694;23.350;2023-03-01T16:58:18;8.82;;;2.70;;
51082;SDS011;37131;42.694;23.350;2023-03-01T17:00:44;7.40;;;2.85;;
51082;SDS011;37131;42.694;23.350;2023-03-01T17:03:09;9.73;;;3.15;;
51082;SDS011;37131;42.694;23.350;2023-03-01T17:05:34;5.90;;;2.08;;
51082;SDS011;37131;42.694;23.350;2023-03-01T17:08:00;7.40;;;2.70;;